Time;durP1;ratioP1;P1;durP2;ratioP2;P2;SDS_P1;SDS_P2;PMS_P1;PMS_P2;Temp;Humidity;BMP_temperature;BMP_pressure;BME280_temperature;BME280_humidity;BME280_pressure;Samples;Min_cycle;Max_cycle;Signal;HPM_P1;HPM_P2
2022/03/09 00:00:44;;;;;;;0.70;0.30;;;22.30;99.90;;;;;;5057244;28;20219;-87
2022/03/09 00:03:14;;;;;;;0.10;0.10;;;22.40;99.90;;;;;;5057041;28;20196;-85
2022/03/09 00:05:46;;;;;;;0.30;0.10;;;22.40;99.90;;;;;;5040898;28;20206;-86
2022/03/09 00:08:16;;;;;;;0.00;0.00;;;22.50;99.90;;;;;;5037036;28;20186;-87
2022/03/09 00:10:49;;;;;;;0.00;0.00;;;22.50;99.90;;;;;;5047539;28;20557;-86
2022/03/09 00:13:21;;;;;;;0.82;0.20;;;22.60;99.90;;;;;;5037686;28;20273;-86
2022/03/09 00:15:51;;;;;;;0.30;0.15;;;22.60;99.90;;;;;;5043777;28;20210;-86
2022/03/09 00:18:22;;;;;;;0.30;0.10;;;22.60;99.90;;;;;;5056786;28;20198;-86
2022/03/09 00:20:53;;;;;;;0.82;0.10;;;22.60;99.90;;;;;;5056586;28;20712;-88
2022/03/09 00:23:29;;;;;;;0.60;0.22;;;22.60;99.90;;;;;;5056760;28;20190;-88
2022/03/09 00:26:01;;;;;;;1.20;0.20;;;22.50;99.90;;;;;;5056764;28;20190;-84
2022/03/09 00:28:35;;;;;;;0.15;0.10;;;22.50;99.90;;;;;;5046022;28;20202;-83
2022/03/09 00:31:05;;;;;;;1.45;0.25;;;22.50;99.90;;;;;;5036613;28;20194;-82
2022/03/09 00:33:38;;;;;;;0.80;0.30;;;22.50;99.90;;;;;;5036778;28;20201;-85
2022/03/09 00:36:09;;;;;;;0.38;0.20;;;22.60;99.90;;;;;;5036616;28;20260;-85
2022/03/09 00:38:39;;;;;;;2.20;0.50;;;22.60;99.90;;;;;;5036239;28;20706;-85
2022/03/09 00:41:14;;;;;;;1.85;0.52;;;22.50;99.90;;;;;;5036602;28;20229;-85
2022/03/09 00:43:48;;;;;;;2.55;0.60;;;22.50;99.90;;;;;;5036273;28;20197;-84
2022/03/09 00:46:19;;;;;;;1.77;0.40;;;22.50;99.90;;;;;;5036392;28;20233;-84
2022/03/09 00:48:52;;;;;;;1.42;0.40;;;22.50;99.90;;;;;;5035959;28;20657;-86
2022/03/09 00:51:26;;;;;;;1.67;0.30;;;22.50;99.90;;;;;;5036236;28;20190;-86
2022/03/09 00:53:59;;;;;;;3.08;1.90;;;22.50;99.90;;;;;;5036210;28;20666;-87
2022/03/09 00:56:33;;;;;;;1.30;0.40;;;22.50;99.90;;;;;;5036652;28;20638;-87
2022/03/09 00:59:03;;;;;;;3.45;0.52;;;22.50;99.90;;;;;;5036152;28;20194;-86
2022/03/09 01:01:37;;;;;;;1.13;0.30;;;22.60;99.90;;;;;;5036099;28;20222;-85
2022/03/09 01:04:08;;;;;;;1.13;0.32;;;22.80;99.90;;;;;;5038286;28;20213;-89
2022/03/09 01:06:41;;;;;;;1.92;0.63;;;22.90;99.90;;;;;;5055966;28;20198;-85
2022/03/09 01:09:12;;;;;;;0.57;0.20;;;22.90;99.90;;;;;;5054526;28;20209;-82
2022/03/09 01:11:44;;;;;;;0.50;0.20;;;22.90;99.90;;;;;;5044738;28;20204;-88
2022/03/09 01:14:15;;;;;;;0.70;0.28;;;23.00;99.90;;;;;;5043000;28;20198;-87
2022/03/09 01:16:49;;;;;;;0.70;0.30;;;23.10;99.90;;;;;;5056233;28;20204;-84
2022/03/09 01:19:22;;;;;;;0.73;0.10;;;23.30;99.90;;;;;;5046380;28;20724;-86
2022/03/09 01:21:53;;;;;;;0.63;0.20;;;23.30;99.90;;;;;;5035820;28;20229;-84
2022/03/09 01:24:24;;;;;;;1.52;0.20;;;23.40;99.90;;;;;;5035720;28;20194;-84
2022/03/09 01:26:56;;;;;;;1.25;0.20;;;23.50;99.90;;;;;;5036035;28;20190;-83
2022/03/09 01:29:27;;;;;;;0.55;0.40;;;23.60;99.90;;;;;;5043413;28;20190;-84
2022/03/09 01:31:57;;;;;;;1.58;0.40;;;23.60;99.90;;;;;;5035975;28;20205;-84
2022/03/09 01:34:32;;;;;;;1.05;0.30;;;23.50;99.90;;;;;;5041950;28;20190;-89
2022/03/09 01:37:02;;;;;;;0.45;0.28;;;23.50;99.90;;;;;;5049465;28;20186;-88
2022/03/09 01:39:33;;;;;;;0.57;0.17;;;23.40;99.90;;;;;;5047051;28;20584;-89
2022/03/09 01:42:09;;;;;;;3.22;0.30;;;23.20;99.90;;;;;;5038909;28;20237;-89
2022/03/09 01:44:39;;;;;;;0.43;0.20;;;23.10;99.90;;;;;;5048817;28;20182;-91
2022/03/09 01:47:10;;;;;;;1.65;0.40;;;23.00;99.90;;;;;;5042632;28;20251;-88
2022/03/09 01:49:41;;;;;;;0.50;0.20;;;23.00;99.90;;;;;;5039640;28;20564;-81
2022/03/09 01:52:14;;;;;;;0.30;0.30;;;23.00;99.90;;;;;;5038300;28;20270;-82
2022/03/09 01:54:44;;;;;;;0.73;0.20;;;23.00;99.90;;;;;;5055166;28;20280;-87
2022/03/09 01:57:17;;;;;;;2.67;0.45;;;22.90;99.90;;;;;;5053592;28;20187;-84
2022/03/09 01:59:50;;;;;;;0.30;0.10;;;22.90;99.90;;;;;;5043568;28;20197;-83
2022/03/09 02:02:20;;;;;;;1.25;0.30;;;22.90;99.90;;;;;;5039752;28;20249;-84
2022/03/09 02:04:52;;;;;;;0.80;0.50;;;22.90;99.90;;;;;;5039504;28;20196;-83
2022/03/09 02:09:41;;;;;;;1.33;0.73;;;22.90;99.90;;;;;;5041463;28;20277;-82
2022/03/09 02:10:13;;;;;;;0.30;0.20;;;22.90;99.90;;;;;;5044220;28;20249;-81
2022/03/09 02:12:46;;;;;;;1.48;0.50;;;22.80;99.90;;;;;;5044985;28;20194;-84
2022/03/09 02:15:16;;;;;;;1.52;0.50;;;22.90;99.90;;;;;;5045632;28;20243;-82
2022/03/09 02:17:47;;;;;;;0.40;0.30;;;23.00;99.90;;;;;;5041614;28;20185;-83
2022/03/09 02:20:18;;;;;;;1.70;0.40;;;23.00;99.90;;;;;;5046497;28;20193;-84
2022/03/09 02:22:53;;;;;;;2.55;0.43;;;23.00;99.90;;;;;;5043744;28;20273;-83
2022/03/09 02:25:24;;;;;;;0.88;0.35;;;23.10;99.90;;;;;;5044281;28;20181;-82
2022/03/09 02:27:54;;;;;;;0.57;0.30;;;23.10;99.90;;;;;;5055677;28;20200;-85
2022/03/09 02:30:25;;;;;;;0.40;0.20;;;23.10;99.90;;;;;;5042926;28;20241;-82
2022/03/09 02:32:56;;;;;;;0.47;0.30;;;23.10;99.90;;;;;;5038385;28;20209;-83
2022/03/09 02:35:26;;;;;;;1.75;0.38;;;23.10;99.90;;;;;;5040725;28;20528;-85
2022/03/09 02:38:07;;;;;;;0.85;0.32;;;23.10;99.90;;;;;;5110718;27;20962;-80
2022/03/09 02:40:38;;;;;;;1.05;0.32;;;23.20;99.90;;;;;;5110850;28;20565;-81
2022/03/09 02:43:08;;;;;;;2.65;0.30;;;23.30;99.90;;;;;;5110199;28;20187;-85
2022/03/09 02:45:39;;;;;;;0.75;0.40;;;23.30;99.90;;;;;;5110563;28;20183;-84
2022/03/09 02:48:10;;;;;;;2.78;0.40;;;23.40;99.90;;;;;;5110450;28;20199;-82
2022/03/09 02:50:40;;;;;;;2.20;0.40;;;23.50;99.90;;;;;;5110645;28;20195;-82
2022/03/09 02:53:13;;;;;;;0.85;0.20;;;23.50;99.90;;;;;;5110729;28;20550;-81
2022/03/09 02:55:44;;;;;;;1.70;0.30;;;23.50;99.90;;;;;;5110810;28;20253;-80
2022/03/09 02:58:14;;;;;;;2.35;1.45;;;23.50;99.90;;;;;;5110562;28;20191;-80
2022/03/09 03:00:45;;;;;;;3.38;0.90;;;23.60;99.90;;;;;;5110315;28;20188;-82
2022/03/09 03:03:16;;;;;;;1.88;0.55;;;23.60;99.90;;;;;;5109392;28;20187;-82
2022/03/09 03:05:46;;;;;;;2.72;0.65;;;23.60;99.90;;;;;;5110379;28;20200;-83
2022/03/09 03:08:22;;;;;;;0.85;0.30;;;23.60;99.90;;;;;;5109208;28;20192;-82
2022/03/09 03:10:52;;;;;;;1.77;0.30;;;23.50;99.90;;;;;;5106313;28;20211;-81
2022/03/09 03:13:23;;;;;;;0.28;0.28;;;23.40;99.90;;;;;;5110230;28;20190;-84
2022/03/09 03:15:54;;;;;;;1.63;0.45;;;23.50;99.90;;;;;;5109743;28;20188;-85
2022/03/09 03:18:24;;;;;;;1.25;0.30;;;23.60;99.90;;;;;;5106440;28;20210;-88
2022/03/09 03:20:56;;;;;;;1.60;0.30;;;23.80;99.90;;;;;;5110441;28;20195;-83
2022/03/09 03:23:29;;;;;;;0.98;0.20;;;24.00;99.90;;;;;;5109997;28;20234;-82
2022/03/09 03:26:00;;;;;;;1.55;0.30;;;24.10;99.90;;;;;;5109770;28;20560;-81
2022/03/09 03:28:31;;;;;;;1.38;0.30;;;24.20;99.90;;;;;;5109799;28;20192;-82
2022/03/09 03:31:02;;;;;;;0.88;0.40;;;24.30;99.90;;;;;;5109971;28;20192;-82
2022/03/09 03:33:32;;;;;;;1.38;0.30;;;24.30;99.90;;;;;;5109858;28;20558;-82
2022/03/09 03:36:06;;;;;;;1.38;0.40;;;24.30;99.90;;;;;;5109585;28;20228;-84
2022/03/09 03:38:38;;;;;;;1.58;0.30;;;24.30;99.90;;;;;;5110090;28;20195;-81
2022/03/09 03:41:09;;;;;;;1.13;0.32;;;24.10;99.90;;;;;;5110026;28;20210;-85
2022/03/09 03:43:40;;;;;;;0.65;0.22;;;24.00;99.90;;;;;;5109458;28;20195;-83
2022/03/09 03:46:11;;;;;;;0.80;0.40;;;24.00;99.90;;;;;;5109847;28;20196;-81
2022/03/09 03:48:41;;;;;;;1.80;0.50;;;23.90;99.90;;;;;;5100339;28;20193;-81
2022/03/09 03:51:12;;;;;;;1.85;0.52;;;23.80;99.90;;;;;;5096057;28;20192;-82
2022/03/09 03:53:45;;;;;;;3.28;0.68;;;23.80;99.90;;;;;;5096051;28;20238;-81
2022/03/09 03:56:16;;;;;;;2.08;0.60;;;23.90;99.90;;;;;;5094491;28;20535;-83
2022/03/09 03:58:46;;;;;;;1.92;0.50;;;24.00;99.90;;;;;;5096163;28;20192;-83
2022/03/09 04:01:17;;;;;;;1.33;0.50;;;24.00;99.90;;;;;;5080321;28;20241;-87
2022/03/09 04:03:47;;;;;;;3.22;0.43;;;24.00;99.90;;;;;;5096858;28;20628;-84
2022/03/09 04:06:18;;;;;;;0.98;0.20;;;24.00;99.90;;;;;;5096337;28;20192;-91
2022/03/09 04:08:51;;;;;;;3.72;0.35;;;23.80;99.90;;;;;;5097516;28;20188;-85
2022/03/09 04:11:28;;;;;;;0.73;0.40;;;23.70;99.90;;;;;;5096458;28;20199;-90
2022/03/09 04:13:58;;;;;;;1.60;0.40;;;23.60;99.90;;;;;;5096672;28;20555;-90
2022/03/09 04:16:29;;;;;;;1.02;0.40;;;23.50;99.90;;;;;;5095628;28;20219;-85
2022/03/09 04:19:00;;;;;;;1.27;0.30;;;23.60;99.90;;;;;;5095014;28;20223;-81
2022/03/09 04:21:31;;;;;;;2.30;0.47;;;23.60;99.90;;;;;;5095372;28;20237;-83
2022/03/09 04:24:05;;;;;;;0.45;0.20;;;23.70;99.90;;;;;;5095491;28;20196;-83
2022/03/09 04:26:35;;;;;;;0.43;0.30;;;23.70;99.90;;;;;;5095096;28;20211;-84
2022/03/09 04:29:06;;;;;;;2.85;0.30;;;23.70;99.90;;;;;;5095272;28;20609;-83
2022/03/09 04:31:37;;;;;;;1.17;0.20;;;23.60;99.90;;;;;;5095046;28;20188;-86
2022/03/09 04:34:08;;;;;;;1.80;0.25;;;23.60;99.90;;;;;;5095459;28;20197;-82
2022/03/09 04:36:39;;;;;;;0.63;0.20;;;23.60;99.90;;;;;;5095196;28;20232;-84
2022/03/09 04:39:14;;;;;;;0.57;0.20;;;23.60;99.90;;;;;;5095300;28;20203;-86
2022/03/09 04:41:45;;;;;;;1.80;0.30;;;23.60;99.90;;;;;;5094996;28;20238;-87
2022/03/09 04:44:15;;;;;;;0.77;0.30;;;23.60;99.90;;;;;;5095691;28;20215;-86
2022/03/09 04:46:47;;;;;;;0.70;0.30;;;23.50;99.90;;;;;;5095348;28;20211;-88
2022/03/09 04:49:18;;;;;;;0.80;0.30;;;23.40;99.90;;;;;;5088282;28;20184;-89
2022/03/09 04:51:48;;;;;;;0.63;0.30;;;23.40;99.90;;;;;;5095095;28;20188;-87
2022/03/09 04:54:21;;;;;;;3.63;0.40;;;23.40;99.90;;;;;;5094839;28;20207;-91
2022/03/09 04:56:51;;;;;;;0.90;0.40;;;23.50;99.90;;;;;;5096929;28;20220;-89
2022/03/09 04:59:23;;;;;;;1.35;0.32;;;23.40;99.90;;;;;;5096096;28;20196;-85
2022/03/09 05:01:55;;;;;;;1.23;0.50;;;23.30;99.90;;;;;;5095472;28;20192;-85
2022/03/09 05:04:25;;;;;;;0.98;0.30;;;23.30;99.90;;;;;;5091822;28;20188;-85
2022/03/09 05:06:56;;;;;;;1.80;0.50;;;23.30;99.90;;;;;;5084627;28;20196;-87
2022/03/09 05:09:29;;;;;;;2.13;0.40;;;23.40;99.90;;;;;;5091589;28;20582;-87
2022/03/09 05:12:00;;;;;;;3.05;0.50;;;23.30;99.90;;;;;;5092962;28;20199;-85
2022/03/09 05:14:30;;;;;;;0.60;0.40;;;23.40;99.90;;;;;;5094426;28;20189;-84
2022/03/09 05:17:01;;;;;;;0.90;0.30;;;23.50;99.90;;;;;;5094782;28;20212;-87
2022/03/09 05:19:32;;;;;;;0.63;0.32;;;23.50;99.90;;;;;;5095008;28;20249;-84
2022/03/09 05:22:03;;;;;;;1.92;0.65;;;23.50;99.90;;;;;;5093798;28;20188;-83
2022/03/09 05:24:35;;;;;;;2.90;0.60;;;23.70;99.90;;;;;;5094055;28;20188;-83
2022/03/09 05:27:06;;;;;;;1.65;0.40;;;23.80;99.90;;;;;;5094615;28;20193;-83
2022/03/09 05:29:37;;;;;;;3.50;0.55;;;23.80;99.90;;;;;;5094413;28;20188;-83
2022/03/09 05:32:08;;;;;;;2.60;0.57;;;23.60;99.90;;;;;;5094099;28;20655;-89
2022/03/09 05:34:39;;;;;;;0.98;0.43;;;23.70;99.90;;;;;;5094515;28;20691;-86
2022/03/09 05:37:12;;;;;;;1.63;0.50;;;23.70;99.90;;;;;;5094692;28;20243;-91
2022/03/09 05:39:44;;;;;;;3.33;0.52;;;23.60;99.90;;;;;;5094569;28;20192;-92
2022/03/09 05:42:15;;;;;;;1.55;0.50;;;23.50;99.90;;;;;;5094930;28;20196;-85
2022/03/09 05:44:46;;;;;;;4.10;0.68;;;23.50;99.90;;;;;;5094653;28;20230;-91
2022/03/09 05:47:17;;;;;;;1.38;0.50;;;23.60;99.90;;;;;;5093237;28;20188;-84
2022/03/09 05:49:48;;;;;;;4.53;0.60;;;23.60;99.90;;;;;;5094349;28;20226;-87
2022/03/09 05:52:19;;;;;;;2.05;0.50;;;23.50;99.90;;;;;;5093008;28;20194;-85
2022/03/09 05:54:51;;;;;;;3.30;0.52;;;23.50;99.90;;;;;;5094022;28;20184;-83
2022/03/09 05:57:23;;;;;;;1.73;0.40;;;23.40;99.90;;;;;;5094146;28;20208;-83
2022/03/09 05:59:54;;;;;;;2.90;0.45;;;23.30;99.90;;;;;;5094099;28;20192;-82
2022/03/09 06:02:24;;;;;;;2.35;0.57;;;23.20;99.90;;;;;;5094054;28;20184;-82
2022/03/09 06:04:55;;;;;;;2.22;0.45;;;23.20;99.90;;;;;;5094056;28;20188;-85
2022/03/09 06:07:25;;;;;;;3.35;0.70;;;23.50;99.90;;;;;;5093951;28;20697;-83
2022/03/09 06:09:58;;;;;;;2.63;0.70;;;23.60;99.90;;;;;;5093526;28;20303;-82
2022/03/09 06:12:29;;;;;;;2.83;0.50;;;23.70;99.90;;;;;;5093677;28;20551;-82
2022/03/09 06:15:00;;;;;;;2.50;0.60;;;23.80;99.90;;;;;;5094000;28;20184;-83
2022/03/09 06:17:31;;;;;;;5.32;0.80;;;23.60;99.90;;;;;;5093986;28;20227;-84
2022/03/09 06:20:01;;;;;;;3.75;0.90;;;23.50;99.90;;;;;;5093932;28;20199;-83
2022/03/09 06:22:32;;;;;;;3.40;0.90;;;23.50;99.90;;;;;;5093521;28;20618;-84
2022/03/09 06:25:04;;;;;;;5.95;1.17;;;23.40;99.90;;;;;;5093795;28;20211;-82
2022/03/09 06:27:43;;;;;;;9.27;1.08;;;23.30;99.90;;;;;;5093666;28;20188;-82
2022/03/09 06:30:14;;;;;;;6.82;1.20;;;23.20;99.90;;;;;;5093794;28;20192;-82
2022/03/09 06:32:45;;;;;;;5.65;1.30;;;23.20;99.90;;;;;;5093683;28;20189;-86
2022/03/09 06:35:17;;;;;;;10.95;2.22;;;23.10;99.90;;;;;;5093541;28;20214;-87
2022/03/09 06:37:47;;;;;;;8.82;2.05;;;23.10;99.90;;;;;;5093051;28;20240;-88
2022/03/09 06:40:21;;;;;;;10.40;2.40;;;23.10;99.90;;;;;;5093451;28;20196;-88
2022/03/09 06:42:52;;;;;;;8.07;1.63;;;22.90;99.90;;;;;;5093381;28;20235;-86
2022/03/09 06:45:23;;;;;;;8.57;1.88;;;22.90;99.90;;;;;;5092391;28;20640;-89
2022/03/09 06:47:53;;;;;;;10.90;2.30;;;22.80;99.90;;;;;;5093349;28;20199;-81
2022/03/09 06:50:24;;;;;;;10.13;1.85;;;22.70;99.90;;;;;;5093163;28;20210;-81
2022/03/09 06:52:55;;;;;;;12.30;2.25;;;22.60;99.90;;;;;;5093266;28;20253;-81
2022/03/09 06:55:27;;;;;;;10.15;2.15;;;22.50;99.90;;;;;;5093301;28;20242;-82
2022/03/09 06:57:58;;;;;;;5.93;1.92;;;22.50;99.90;;;;;;5093145;28;20216;-81
2022/03/09 07:00:28;;;;;;;10.75;2.10;;;22.50;99.90;;;;;;5093301;28;20644;-81
2022/03/09 07:02:59;;;;;;;9.40;1.98;;;22.50;99.90;;;;;;5093149;28;20192;-80
2022/03/09 07:05:30;;;;;;;11.15;2.00;;;22.50;99.90;;;;;;5092921;28;20708;-80
2022/03/09 07:08:01;;;;;;;8.02;2.10;;;22.60;99.90;;;;;;5093168;28;20263;-82
2022/03/09 07:10:34;;;;;;;8.43;1.73;;;22.60;99.90;;;;;;5092988;28;20273;-81
2022/03/09 07:13:04;;;;;;;12.00;1.75;;;22.50;99.90;;;;;;5093087;28;20242;-81
2022/03/09 07:15:35;;;;;;;10.75;2.30;;;22.50;99.90;;;;;;5093085;28;20188;-81
2022/03/09 07:18:06;;;;;;;9.20;2.00;;;22.50;99.90;;;;;;5093012;28;20219;-81
2022/03/09 07:20:36;;;;;;;10.95;2.22;;;22.40;99.90;;;;;;5092934;28;20247;-81
2022/03/09 07:23:07;;;;;;;12.88;2.28;;;22.40;99.90;;;;;;5093860;28;20188;-82
2022/03/09 07:25:40;;;;;;;11.45;2.17;;;22.40;99.90;;;;;;5096877;28;20185;-80
2022/03/09 07:28:11;;;;;;;10.02;1.92;;;22.40;99.90;;;;;;5096766;28;20547;-80
2022/03/09 07:30:42;;;;;;;9.27;2.08;;;22.40;99.90;;;;;;5096364;28;20189;-81
2022/03/09 07:33:12;;;;;;;5.35;1.70;;;22.30;99.90;;;;;;5096800;28;20668;-87
2022/03/09 07:35:45;;;;;;;12.15;1.95;;;22.30;99.90;;;;;;5096903;28;20189;-87
2022/03/09 07:38:16;;;;;;;9.82;2.33;;;22.20;99.90;;;;;;5096807;28;20220;-87
2022/03/09 07:40:48;;;;;;;12.70;2.00;;;22.20;99.90;;;;;;5096874;28;20195;-82
2022/03/09 07:43:19;;;;;;;9.25;1.75;;;22.10;99.90;;;;;;5096502;28;20709;-93
2022/03/09 07:45:50;;;;;;;7.38;1.90;;;22.00;99.90;;;;;;5096598;28;20257;-86
2022/03/09 07:48:21;;;;;;;12.25;2.10;;;21.90;99.90;;;;;;5096420;28;20245;-80
2022/03/09 07:50:51;;;;;;;8.50;2.10;;;21.80;99.90;;;;;;5096375;28;20195;-82
2022/03/09 07:53:22;;;;;;;6.50;1.63;;;21.70;99.90;;;;;;5096385;28;20191;-85
2022/03/09 07:55:55;;;;;;;9.82;1.83;;;21.60;99.90;;;;;;5096592;28;20189;-80
2022/03/09 07:58:26;;;;;;;9.70;1.63;;;21.60;99.90;;;;;;5096220;28;20208;-87
2022/03/09 08:00:56;;;;;;;9.60;2.00;;;21.50;99.90;;;;;;5096236;28;20200;-80
2022/03/09 08:03:27;;;;;;;8.15;1.67;;;21.50;99.90;;;;;;5095943;28;20196;-85
2022/03/09 08:05:58;;;;;;;13.13;2.22;;;21.50;99.90;;;;;;5096241;28;20195;-88
2022/03/09 08:08:28;;;;;;;11.50;2.10;;;21.40;99.90;;;;;;5096154;28;20706;-87
2022/03/09 08:11:01;;;;;;;11.60;2.15;;;21.30;99.90;;;;;;5095798;28;20220;-85
2022/03/09 08:13:31;;;;;;;14.05;2.45;;;21.30;99.90;;;;;;5096235;28;20196;-90
2022/03/09 08:16:02;;;;;;;12.48;2.05;;;21.20;99.90;;;;;;5095846;28;20188;-88
2022/03/09 08:18:32;;;;;;;9.07;2.13;;;21.10;99.90;;;;;;5095713;28;20748;-81
2022/03/09 08:21:03;;;;;;;10.18;1.73;;;21.00;99.90;;;;;;5095821;28;20188;-82
2022/03/09 08:23:34;;;;;;;11.50;2.22;;;21.00;99.90;;;;;;5095739;28;20184;-81
2022/03/09 08:26:07;;;;;;;9.80;2.08;;;21.00;99.90;;;;;;5095677;28;20184;-82
2022/03/09 08:28:38;;;;;;;13.48;2.20;;;20.90;99.90;;;;;;5095629;28;20189;-80
2022/03/09 08:31:09;;;;;;;10.85;2.65;;;20.90;99.90;;;;;;5095670;28;20614;-82
2022/03/09 08:33:40;;;;;;;9.40;2.15;;;20.90;99.90;;;;;;5095352;28;20189;-88
2022/03/09 08:36:11;;;;;;;11.68;2.38;;;20.80;99.90;;;;;;5095580;28;20765;-85
2022/03/09 08:38:42;;;;;;;8.35;1.83;;;20.80;99.90;;;;;;5095512;28;20303;-86
2022/03/09 08:41:14;;;;;;;16.10;2.42;;;20.80;99.90;;;;;;5095666;28;20564;-88
2022/03/09 08:43:45;;;;;;;9.73;2.00;;;20.80;99.90;;;;;;5095488;28;20192;-88
2022/03/09 08:46:17;;;;;;;9.45;2.10;;;20.70;99.90;;;;;;5095788;28;20250;-88
2022/03/09 08:48:48;;;;;;;10.90;2.20;;;20.70;99.90;;;;;;5095972;28;20234;-82
2022/03/09 08:51:21;;;;;;;11.45;2.08;;;20.60;99.90;;;;;;5095339;28;20184;-81
2022/03/09 08:53:51;;;;;;;10.40;2.42;;;20.60;99.90;;;;;;5095400;28;20188;-82
2022/03/09 08:56:27;;;;;;;10.70;2.10;;;20.60;99.90;;;;;;5095223;28;20184;-82
2022/03/09 08:58:59;;;;;;;13.15;2.05;;;20.60;99.90;;;;;;5095091;28;20311;-82
2022/03/09 09:01:29;;;;;;;9.00;2.03;;;20.60;99.90;;;;;;5095147;28;20192;-81
2022/03/09 09:04:00;;;;;;;10.90;2.28;;;20.50;99.90;;;;;;5094965;28;20590;-86
2022/03/09 09:06:31;;;;;;;10.65;2.20;;;20.50;99.90;;;;;;5095199;28;20184;-88
2022/03/09 09:09:01;;;;;;;16.27;2.20;;;20.40;99.90;;;;;;5094829;28;20241;-87
2022/03/09 09:11:34;;;;;;;14.10;2.53;;;20.40;99.90;;;;;;5094907;28;20190;-89
2022/03/09 09:14:05;;;;;;;9.85;2.08;;;20.30;99.90;;;;;;5095028;28;20192;-88
2022/03/09 09:16:35;;;;;;;7.03;2.00;;;20.30;99.90;;;;;;5094835;28;20189;-90
2022/03/09 09:19:06;;;;;;;9.55;2.20;;;20.20;99.90;;;;;;5094845;28;20220;-84
2022/03/09 09:21:37;;;;;;;12.77;2.08;;;20.20;99.90;;;;;;5094671;28;20253;-83
2022/03/09 09:24:08;;;;;;;12.05;1.95;;;20.20;99.90;;;;;;5094530;28;20188;-82
2022/03/09 09:26:40;;;;;;;9.20;1.90;;;20.20;99.90;;;;;;5094580;28;20560;-84
2022/03/09 09:29:11;;;;;;;9.65;1.80;;;20.10;99.90;;;;;;5094397;28;20525;-82
2022/03/09 09:31:42;;;;;;;8.43;1.80;;;20.20;99.90;;;;;;5094249;28;20188;-81
2022/03/09 09:34:13;;;;;;;12.93;1.83;;;20.10;99.90;;;;;;5094463;28;20192;-88
2022/03/09 09:36:46;;;;;;;8.05;1.85;;;20.00;99.90;;;;;;5093069;28;20231;-89
2022/03/09 09:39:17;;;;;;;7.32;1.85;;;20.00;99.90;;;;;;5094266;28;20215;-87
2022/03/09 09:41:51;;;;;;;11.95;2.10;;;20.00;99.90;;;;;;5094503;28;20647;-85
2022/03/09 09:44:25;;;;;;;13.25;1.92;;;20.00;99.90;;;;;;5094240;28;20279;-89
2022/03/09 09:46:56;;;;;;;8.23;1.88;;;20.00;99.90;;;;;;5094537;28;20195;-87
2022/03/09 09:49:27;;;;;;;8.60;1.63;;;20.00;99.90;;;;;;5094260;28;20188;-81
2022/03/09 09:51:58;;;;;;;10.23;1.95;;;20.00;99.90;;;;;;5094142;28;20632;-83
2022/03/09 09:54:28;;;;;;;11.98;1.92;;;19.90;99.90;;;;;;5094094;28;20192;-81
2022/03/09 09:57:01;;;;;;;10.73;1.88;;;19.90;99.90;;;;;;5094300;28;20208;-81
2022/03/09 09:59:32;;;;;;;14.02;2.03;;;19.90;99.90;;;;;;5093737;28;20212;-83
2022/03/09 10:02:03;;;;;;;8.25;2.05;;;19.80;99.90;;;;;;5094184;28;20196;-82
2022/03/09 10:04:34;;;;;;;12.65;2.10;;;19.70;99.90;;;;;;5094319;28;20189;-87
2022/03/09 10:07:04;;;;;;;10.32;1.60;;;19.70;99.90;;;;;;5093999;28;20188;-87
2022/03/09 10:09:39;;;;;;;13.15;1.80;;;19.70;99.90;;;;;;5093645;28;20568;-89
2022/03/09 10:12:13;;;;;;;9.48;1.92;;;19.70;99.90;;;;;;5093829;28;20188;-89
2022/03/09 10:14:47;;;;;;;17.30;2.28;;;19.60;99.90;;;;;;5093622;28;20238;-87
2022/03/09 10:17:19;;;;;;;15.93;2.10;;;19.60;99.90;;;;;;5073968;28;20532;-87
2022/03/09 10:19:52;;;;;;;11.75;2.28;;;19.60;99.90;;;;;;5073442;28;20266;-82
2022/03/09 10:22:28;;;;;;;13.80;2.22;;;19.60;99.90;;;;;;5073365;28;20221;-82
2022/03/09 10:25:02;;;;;;;10.63;1.83;;;19.60;99.90;;;;;;5073519;28;20710;-80
2022/03/09 10:27:43;;;;;;;12.65;2.13;;;19.60;99.90;;;;;;5077976;28;20632;-80
2022/03/09 10:30:14;;;;;;;11.18;2.53;;;19.50;99.90;;;;;;5093375;28;20241;-82
2022/03/09 10:32:54;;;;;;;13.02;2.22;;;19.50;99.90;;;;;;5093648;28;20198;-82
2022/03/09 10:35:42;;;;;;;13.63;2.40;;;19.40;99.90;;;;;;5093756;28;20283;-87
2022/03/09 10:38:25;;;;;;;14.32;2.10;;;19.50;99.90;;;;;;5093098;28;20589;-93
2022/03/09 10:41:00;;;;;;;11.85;2.35;;;19.50;99.90;;;;;;5073454;28;20196;-89
2022/03/09 10:43:33;;;;;;;12.75;2.10;;;19.50;99.90;;;;;;5082807;28;20245;-92
2022/03/09 10:46:08;;;;;;;10.85;2.08;;;19.50;99.90;;;;;;5093825;28;20279;-91
2022/03/09 10:49:00;;;;;;;15.23;2.40;;;19.50;99.90;;;;;;5093824;28;20192;-85
2022/03/09 10:51:36;;;;;;;14.20;2.33;;;19.50;99.90;;;;;;5093519;28;20188;-82
2022/03/09 10:54:08;;;;;;;13.35;2.38;;;19.40;99.90;;;;;;5093393;28;20188;-85
2022/03/09 10:56:40;;;;;;;13.55;1.90;;;19.40;99.90;;;;;;5093562;28;20234;-82
2022/03/09 10:59:19;;;;;;;14.57;2.38;;;19.40;99.90;;;;;;5095221;28;20303;-83
2022/03/09 11:02:06;;;;;;;13.45;2.13;;;19.40;99.90;;;;;;5097259;28;20188;-86
2022/03/09 11:04:37;;;;;;;17.90;2.67;;;19.50;99.90;;;;;;5097426;28;20295;-82
2022/03/09 11:07:09;;;;;;;13.65;2.85;;;19.50;99.90;;;;;;5096628;28;20188;-83
2022/03/09 11:09:41;;;;;;;11.95;2.13;;;19.40;99.90;;;;;;5096808;28;20219;-82
2022/03/09 11:12:12;;;;;;;12.65;2.20;;;19.50;99.90;;;;;;5096352;28;20285;-82
2022/03/09 11:14:46;;;;;;;14.23;2.90;;;19.50;99.90;;;;;;5096505;28;20232;-84
2022/03/09 11:17:17;;;;;;;14.90;1.98;;;19.40;99.90;;;;;;5096672;28;20199;-80
2022/03/09 11:19:48;;;;;;;21.55;2.80;;;19.40;99.90;;;;;;5096707;28;20208;-82
2022/03/09 11:22:19;;;;;;;14.90;2.20;;;19.40;99.90;;;;;;5095210;28;20230;-83
2022/03/09 11:24:50;;;;;;;16.27;2.47;;;19.40;99.90;;;;;;5096205;28;20521;-82
2022/03/09 11:27:21;;;;;;;14.27;2.30;;;19.30;99.90;;;;;;5096250;28;20188;-82
2022/03/09 11:29:57;;;;;;;9.05;1.65;;;19.30;99.90;;;;;;5096174;28;20192;-83
2022/03/09 11:32:37;;;;;;;13.30;2.33;;;19.40;99.90;;;;;;5096617;28;20191;-82
2022/03/09 11:35:37;;;;;;;11.95;2.17;;;19.40;99.90;;;;;;5096157;28;20195;-82
2022/03/09 11:38:41;;;;;;;11.98;2.10;;;19.40;99.90;;;;;;5095888;28;20196;-80
2022/03/09 11:41:23;;;;;;;12.25;2.22;;;19.40;99.90;;;;;;5095727;28;20230;-82
2022/03/09 11:43:55;;;;;;;13.35;1.90;;;19.40;99.90;;;;;;5093067;28;20253;-84
2022/03/09 11:47:03;;;;;;;12.70;2.63;;;19.30;99.90;;;;;;5095853;28;20548;-82
2022/03/09 11:49:59;;;;;;;12.50;2.08;;;19.30;99.90;;;;;;5090484;28;20226;-81
2022/03/09 11:52:31;;;;;;;12.10;2.30;;;19.30;99.90;;;;;;5096268;28;20200;-82
2022/03/09 11:55:05;;;;;;;15.02;2.25;;;19.20;99.90;;;;;;5095678;28;20266;-82
2022/03/09 11:58:09;;;;;;;15.10;2.50;;;19.20;99.90;;;;;;5095617;28;20188;-84
2022/03/09 12:00:40;;;;;;;14.93;2.78;;;19.20;99.90;;;;;;5095927;28;20207;-80
2022/03/09 12:03:13;;;;;;;10.85;2.10;;;19.20;99.90;;;;;;5095525;28;20208;-82
2022/03/09 12:05:45;;;;;;;11.00;2.15;;;19.20;99.90;;;;;;5095773;28;20191;-83
2022/03/09 12:08:16;;;;;;;10.82;2.22;;;19.20;99.90;;;;;;5079404;28;20188;-81
2022/03/09 12:10:51;;;;;;;12.48;1.98;;;19.20;99.90;;;;;;5094812;28;20212;-81
2022/03/09 12:13:35;;;;;;;10.30;1.85;;;19.20;99.90;;;;;;5095784;28;20280;-85
2022/03/09 12:16:12;;;;;;;10.20;2.00;;;19.10;99.90;;;;;;5095366;28;20188;-82
2022/03/09 12:18:49;;;;;;;9.98;2.08;;;19.20;99.90;;;;;;5095602;28;20180;-83
2022/03/09 12:21:21;;;;;;;10.30;2.08;;;19.20;99.90;;;;;;5095762;28;20210;-82
2022/03/09 12:24:39;;;;;;;11.23;2.10;;;19.20;99.90;;;;;;5095085;28;20188;-85
2022/03/09 12:27:27;;;;;;;13.80;2.10;;;19.10;99.90;;;;;;5094369;28;20702;-82
2022/03/09 12:29:58;;;;;;;10.98;2.20;;;19.00;99.90;;;;;;5084705;28;20618;-84
2022/03/09 12:32:41;;;;;;;15.48;2.22;;;19.00;99.90;;;;;;5092300;28;20184;-84
2022/03/09 12:35:14;;;;;;;12.02;2.50;;;19.00;99.90;;;;;;5095433;28;20273;-84
2022/03/09 12:37:45;;;;;;;13.07;2.10;;;19.00;99.90;;;;;;5095035;28;20242;-84
2022/03/09 12:40:16;;;;;;;9.25;2.13;;;19.00;99.90;;;;;;5094770;28;20298;-82
2022/03/09 12:42:59;;;;;;;13.85;2.38;;;18.90;99.90;;;;;;5094671;28;20644;-83
2022/03/09 12:45:30;;;;;;;10.10;2.28;;;18.90;99.90;;;;;;5091752;28;20188;-83
2022/03/09 12:48:00;;;;;;;10.93;2.35;;;18.90;99.90;;;;;;5095055;28;20192;-80
2022/03/09 12:50:35;;;;;;;15.38;2.15;;;18.80;99.90;;;;;;5094941;28;20712;-84
2022/03/09 12:53:06;;;;;;;10.48;2.00;;;18.80;99.90;;;;;;5094599;28;20271;-84
2022/03/09 12:55:36;;;;;;;11.70;2.03;;;18.80;99.90;;;;;;5094779;28;20196;-83
2022/03/09 12:58:07;;;;;;;9.85;2.05;;;18.70;99.90;;;;;;5094230;28;20195;-83
2022/03/09 13:00:39;;;;;;;14.00;2.20;;;18.70;99.90;;;;;;5094852;28;20208;-84
2022/03/09 13:03:12;;;;;;;13.48;1.95;;;18.70;99.90;;;;;;5094202;28;20199;-84
2022/03/09 13:05:45;;;;;;;9.40;1.65;;;18.70;99.90;;;;;;5094927;28;20180;-85
2022/03/09 13:08:16;;;;;;;10.35;2.03;;;18.70;99.90;;;;;;5093895;28;20192;-84
2022/03/09 13:10:49;;;;;;;12.25;2.20;;;18.70;99.90;;;;;;5093932;28;20216;-83